Flight Track Log - Related Links

Times and Time Zones

All times are in EDT time to prevent confusion due to time zone crossing. See the N1570N flight status page for this flight to view local times or setup timezone preferences in your user account.

Time Position Orientation Groundspeed Altitude Reporting Facility
EDT Latitude Longitude Course Direction KTS MPH feet Rate Location/Type
Tue 04:48:29 PM 36.2111 -95.8769 68° East 115 132 1,300  Level Kansas City Center
Tue 04:49:30 PM 36.2228 -95.8417 57° Northeast 118 136 2,600 1,165 Climbing Kansas City Center
Tue 04:50:12 PM 36.2197 -95.8181 99° East 119 137 3,300 1,222 Climbing Kansas City Center
Tue 04:50:24 PM 36.2175 -95.8036 101° East 124 143 3,700 1,254 Climbing Kansas City Center
Tue 04:51:19 PM 36.2100 -95.7683 105° East 124 143 4,700 857 Climbing Kansas City Center
Tue 04:52:16 PM 36.2019 -95.7336 106° East 126 145 5,300 835 Climbing Kansas City Center
Tue 04:53:14 PM 36.1881 -95.6831 109° East 141 162 6,300 958 Climbing Kansas City Center
Tue 04:54:15 PM 36.1772 -95.6303 104° East 146 168 7,200 397 Climbing Kansas City Center
Tue 04:55:15 PM 36.1614 -95.5703 108° East 197 227 7,100 -47 Descending Kansas City Center
Tue 04:56:23 PM 36.1467 -95.5033 105° East 196 226 7,100  Level Kansas City Center
Tue 04:57:17 PM 36.1286 -95.4375 109° East 203 234 7,100  Level Kansas City Center
Tue 04:58:24 PM 36.1092 -95.3600 107° East 204 235 7,100  Level Kansas City Center
Tue 04:59:25 PM 36.0944 -95.2922 105° East 204 235 7,100  Level Kansas City Center
Tue 05:00:32 PM 36.0792 -95.2228 105° East 203 234 7,100  Level Kansas City Center
Tue 05:01:34 PM 36.0631 -95.1553 106° East 203 234 7,100  Level Kansas City Center
Tue 05:02:35 PM 36.0464 -95.0881 107° East 203 234 7,100  Level Kansas City Center
Tue 05:03:38 PM 36.0303 -95.0219 107° East 203 234 7,100  Level Kansas City Center
Tue 05:04:39 PM 36.0222 -94.9403 97° East 210 242 7,100  Level Kansas City Center
Tue 05:05:43 PM 36.0369 -94.8758 74° East 203 234 7,100  Level Kansas City Center
Tue 05:06:47 PM 36.0508 -94.8114 75° East 199 229 7,100  Level Memphis Center
Tue 05:07:49 PM 36.0608 -94.7447 79° East 199 229 7,100  Level Memphis Center
Tue 05:08:51 PM 36.0719 -94.6678 80° East 196 226 7,100  Level Memphis Center
Tue 05:09:53 PM 36.0808 -94.6019 80° East 195 224 7,100  Level Memphis Center
Tue 05:10:56 PM 36.0903 -94.5375 80° East 195 224 7,100  Level Memphis Center
Tue 05:11:58 PM 36.0994 -94.4722 80° East 194 223 7,100  Level Memphis Center
Tue 05:13:00 PM 36.1083 -94.4072 80° East 194 223 7,100  Level Memphis Center
Tue 05:14:02 PM 36.1181 -94.3422 79° East 194 223 7,100  Level Memphis Center
Tue 05:15:04 PM 36.1294 -94.2633 80° East 194 223 7,100  Level Memphis Center
Tue 05:16:06 PM 36.1383 -94.1989 80° East 193 222 7,100  Level Memphis Center
Tue 05:17:08 PM 36.1467 -94.1342 81° East 193 222 7,100  Level Memphis Center
Tue 05:18:10 PM 36.1569 -94.0692 79° East 193 222 7,100  Level Memphis Center
Tue 05:19:12 PM 36.1650 -94.0086 81° East 193 222 7,100  Level Memphis Center
Tue 05:20:14 PM 36.1739 -93.9386 81° East 193 222 7,100  Level Memphis Center
Tue 05:21:16 PM 36.1861 -93.8581 79° East 194 223 7,100  Level Memphis Center
Tue 05:22:18 PM 36.1947 -93.7933 81° East 194 223 7,100  Level Memphis Center
Tue 05:23:21 PM 36.2042 -93.7283 80° East 194 223 7,100  Level Memphis Center
Tue 05:24:23 PM 36.2122 -93.6681 81° East 193 222 7,100  Level Memphis Center
Tue 05:25:25 PM 36.2214 -93.6044 80° East 190 219 7,100  Level Memphis Center
Tue 05:26:27 PM 36.2317 -93.5283 80° East 190 219 7,100  Level Memphis Center
Tue 05:27:29 PM 36.2397 -93.4617 81° East 190 219 7,100  Level Memphis Center
Tue 05:28:31 PM 36.2492 -93.3953 80° East 191 220 7,100 -48 Level Memphis Center
Tue 05:29:33 PM 36.2578 -93.3269 81° East 196 226 7,000 -48 Descending Memphis Center
Tue 05:30:35 PM 36.2675 -93.2581 80° East 199 229 7,000 -97 Level Memphis Center
Tue 05:31:37 PM 36.2767 -93.1894 81° East 200 230 6,800 -484 Descending Memphis Center
Tue 05:32:39 PM 36.2881 -93.1050 80° East 202 232 6,000 -677 Descending Memphis Center
Tue 05:33:41 PM 36.2967 -93.0319 82° East 208 239 5,400 -532 Descending Memphis Center
Tue 05:34:43 PM 36.3053 -92.9589 82° East 208 239 4,900 -484 Descending Memphis Center

Login

Don't have an account? Register now (free) for customized features, flight alerts, and more!